createdAt,value
2018-01-27T00:01:27.199Z,58.50
2018-01-27T00:03:56.052Z,48.33
2018-01-27T00:06:24.911Z,53.80
2018-01-27T00:08:54.291Z,55.30
2018-01-27T00:11:23.173Z,49.10
2018-01-27T00:13:52.064Z,59.63
2018-01-27T00:16:20.909Z,49.03
2018-01-27T00:18:49.789Z,49.60
2018-01-27T00:21:18.799Z,51.53
2018-01-27T00:23:47.661Z,52.93
2018-01-27T00:26:16.512Z,49.37
2018-01-27T00:28:45.451Z,50.70
2018-01-27T00:31:14.327Z,51.33
2018-01-27T00:33:43.198Z,50.17
2018-01-27T00:36:12.112Z,47.37
2018-01-27T00:38:40.947Z,50.60
2018-01-27T00:41:09.807Z,46.90
2018-01-27T00:43:38.661Z,51.27
2018-01-27T00:46:07.518Z,40.00
2018-01-27T00:48:36.431Z,48.33
2018-01-27T00:51:05.317Z,46.63
2018-01-27T00:53:34.163Z,46.80
2018-01-27T00:56:03.036Z,39.77
2018-01-27T00:58:31.939Z,46.83
2018-01-27T01:01:00.787Z,45.33
2018-01-27T01:03:29.658Z,43.60
2018-01-27T01:05:59.383Z,49.13
2018-01-27T01:08:28.233Z,43.47
2018-01-27T01:10:57.080Z,42.17
2018-01-27T01:13:25.953Z,42.17
2018-01-27T01:15:54.783Z,42.23
2018-01-27T01:18:23.623Z,47.97
2018-01-27T01:20:52.495Z,43.63
2018-01-27T01:23:21.714Z,37.87
2018-01-27T01:25:50.571Z,34.53
2018-01-27T01:28:19.436Z,41.57
2018-01-27T01:30:48.271Z,36.97
2018-01-27T01:33:17.124Z,36.90
2018-01-27T01:35:46.020Z,33.40
2018-01-27T01:38:14.864Z,33.00
2018-01-27T01:40:43.731Z,33.57
2018-01-27T01:43:29.412Z,33.33
2018-01-27T01:45:58.297Z,39.03
2018-01-27T01:48:27.135Z,38.03
2018-01-27T01:50:56.590Z,37.63
2018-01-27T01:53:25.439Z,35.73
2018-01-27T01:55:54.833Z,32.60
2018-01-27T01:58:24.619Z,31.67
2018-01-27T02:00:53.478Z,33.17
2018-01-27T02:03:22.328Z,28.20
2018-01-27T02:05:51.213Z,31.57
2018-01-27T02:08:20.065Z,37.00
2018-01-27T02:10:48.907Z,30.43
2018-01-27T02:13:17.779Z,21.43
2018-01-27T02:15:46.631Z,24.67
2018-01-27T02:18:15.470Z,26.53
2018-01-27T02:20:44.325Z,23.57
2018-01-27T02:23:13.207Z,26.83
2018-01-27T02:25:42.067Z,29.10
2018-01-27T02:28:10.942Z,27.17
2018-01-27T02:30:39.792Z,31.80
2018-01-27T02:33:08.652Z,35.00
2018-01-27T02:35:37.521Z,30.57
2018-01-27T02:38:06.408Z,33.40
2018-01-27T02:40:35.269Z,30.63
2018-01-27T02:43:04.130Z,31.53
2018-01-27T02:45:32.976Z,34.20
2018-01-27T02:48:01.827Z,31.10
2018-01-27T02:50:31.502Z,29.83
2018-01-27T02:53:00.358Z,30.00
2018-01-27T02:55:29.226Z,26.03
2018-01-27T02:57:58.678Z,27.33
2018-01-27T03:00:27.771Z,31.93
2018-01-27T03:02:56.616Z,29.87
2018-01-27T03:05:25.517Z,27.77
2018-01-27T03:07:54.371Z,32.33
2018-01-27T03:10:23.219Z,30.93
2018-01-27T03:12:52.101Z,33.17
2018-01-27T03:15:20.937Z,27.37
2018-01-27T03:17:49.808Z,24.47
2018-01-27T03:20:18.707Z,27.57
2018-01-27T03:22:47.547Z,32.97
2018-01-27T03:25:16.415Z,24.57
2018-01-27T03:27:45.288Z,29.90
2018-01-27T03:30:14.296Z,28.00
2018-01-27T03:32:43.150Z,34.20
2018-01-27T03:35:12.069Z,23.43
2018-01-27T03:37:40.911Z,27.37
2018-01-27T03:40:09.821Z,29.10
2018-01-27T03:42:38.735Z,27.27
2018-01-27T03:45:07.567Z,29.60
2018-01-27T03:47:36.533Z,29.57
2018-01-27T03:50:05.397Z,26.53
2018-01-27T03:52:34.230Z,32.93
2018-01-27T03:55:03.106Z,31.23
2018-01-27T03:57:31.983Z,27.23
2018-01-27T04:00:00.823Z,31.83
2018-01-27T04:02:29.672Z,26.37
2018-01-27T04:04:58.553Z,30.40
2018-01-27T04:07:27.399Z,28.00
2018-01-27T04:09:56.231Z,33.17
2018-01-27T04:12:25.145Z,27.67
2018-01-27T04:14:54.015Z,31.03
2018-01-27T04:17:22.849Z,26.13
2018-01-27T04:19:51.785Z,29.83
2018-01-27T04:22:21.551Z,29.30
2018-01-27T04:24:51.353Z,30.43
2018-01-27T04:27:20.187Z,28.43
2018-01-27T04:29:49.033Z,25.77
2018-01-27T04:32:17.902Z,31.60
2018-01-27T04:34:46.749Z,30.17
2018-01-27T04:37:15.615Z,29.67
2018-01-27T04:39:44.511Z,28.37
2018-01-27T04:42:13.355Z,27.73
2018-01-27T04:44:42.213Z,28.33
2018-01-27T04:47:11.101Z,32.13
2018-01-27T04:49:39.949Z,29.07
2018-01-27T04:52:08.809Z,35.07
2018-01-27T04:54:37.749Z,33.27
2018-01-27T04:57:06.601Z,30.70
2018-01-27T04:59:35.461Z,30.70
2018-01-27T05:02:04.327Z,35.60
2018-01-27T05:04:33.563Z,32.07
2018-01-27T05:07:02.435Z,32.77
2018-01-27T05:09:31.667Z,31.67
2018-01-27T05:12:01.401Z,31.60
2018-01-27T05:14:31.237Z,29.47
2018-01-27T05:17:00.100Z,35.63
2018-01-27T05:19:28.959Z,33.93
2018-01-27T05:21:57.821Z,33.33
2018-01-27T05:24:26.656Z,33.77
2018-01-27T05:26:55.495Z,49.00
2018-01-27T05:29:24.573Z,31.53
2018-01-27T05:31:53.414Z,30.07
2018-01-27T05:34:22.265Z,29.83
2018-01-27T05:36:51.163Z,26.63
2018-01-27T05:39:22.383Z,31.23
2018-01-27T05:41:51.279Z,28.33
2018-01-27T05:44:20.783Z,37.77
2018-01-27T05:46:49.659Z,34.33
2018-01-27T05:49:18.575Z,35.40
2018-01-27T05:51:47.473Z,31.70
2018-01-27T05:54:16.311Z,33.13
2018-01-27T05:56:45.767Z,30.00
2018-01-27T05:59:14.899Z,30.70
2018-01-27T06:01:43.787Z,31.50
2018-01-27T06:04:12.919Z,26.67
2018-01-27T06:06:41.785Z,28.97
2018-01-27T06:09:10.673Z,28.83
2018-01-27T06:11:39.559Z,26.20
2018-01-27T06:14:08.422Z,32.23
2018-01-27T06:16:37.269Z,30.47
2018-01-27T06:19:06.159Z,29.77
2018-01-27T06:21:35.051Z,30.27
2018-01-27T06:24:03.993Z,33.03
2018-01-27T06:26:32.903Z,27.47
2018-01-27T06:29:01.805Z,30.30
2018-01-27T06:31:31.004Z,30.60
2018-01-27T06:33:59.906Z,30.20
2018-01-27T06:36:28.787Z,84.13
2018-01-27T06:38:57.687Z,200.20
2018-01-27T06:41:26.585Z,79.10
2018-01-27T06:43:55.447Z,32.57
2018-01-27T06:46:24.283Z,23.60
2018-01-27T06:48:53.173Z,29.90
2018-01-27T06:51:22.015Z,24.93
2018-01-27T06:53:50.879Z,24.53
2018-01-27T06:56:19.859Z,24.50
2018-01-27T06:58:48.707Z,25.20
2018-01-27T07:01:17.845Z,22.93
2018-01-27T07:03:46.741Z,26.40
2018-01-27T07:06:15.650Z,22.23
2018-01-27T07:08:44.519Z,27.43
2018-01-27T07:11:13.429Z,27.93
2018-01-27T07:13:43.095Z,26.13
2018-01-27T07:16:11.941Z,25.80
2018-01-27T07:18:40.807Z,25.37
2018-01-27T07:21:09.687Z,27.60
2018-01-27T07:23:38.541Z,26.33
2018-01-27T07:26:07.404Z,25.30
2018-01-27T07:28:36.938Z,27.40
2018-01-27T07:31:05.895Z,25.73
2018-01-27T07:33:34.809Z,29.33
2018-01-27T07:36:03.723Z,25.93
2018-01-27T07:38:32.561Z,27.00
2018-01-27T07:41:01.427Z,27.30
2018-01-27T07:43:30.280Z,24.00
2018-01-27T07:45:59.131Z,30.43
2018-01-27T07:48:28.069Z,25.60
2018-01-27T07:50:56.903Z,30.17
2018-01-27T07:53:25.758Z,29.30
2018-01-27T07:55:55.456Z,31.83
2018-01-27T07:58:24.298Z,31.30
2018-01-27T08:00:53.189Z,31.77
2018-01-27T08:03:22.055Z,26.40
2018-01-27T08:05:50.930Z,26.17
2018-01-27T08:08:19.779Z,27.97
2018-01-27T08:10:48.835Z,27.00
2018-01-27T08:13:18.087Z,30.83
2018-01-27T08:15:46.970Z,28.17
2018-01-27T08:18:15.897Z,30.13
2018-01-27T08:20:44.735Z,36.60
2018-01-27T08:23:13.579Z,28.07
2018-01-27T08:25:42.452Z,28.57
2018-01-27T08:28:11.301Z,33.40
2018-01-27T08:30:40.163Z,24.87
2018-01-27T08:33:09.041Z,24.90
2018-01-27T08:35:37.919Z,27.10
2018-01-27T08:38:06.766Z,27.33
2018-01-27T08:40:35.640Z,50.57
2018-01-27T08:43:04.491Z,30.47
2018-01-27T08:45:33.323Z,28.67
2018-01-27T08:48:02.197Z,34.33
2018-01-27T08:50:32.020Z,29.13
2018-01-27T08:53:00.867Z,28.63
2018-01-27T08:55:29.853Z,27.97
2018-01-27T08:57:58.741Z,33.43
2018-01-27T09:00:27.575Z,21.43
2018-01-27T09:02:56.445Z,27.60
2018-01-27T09:05:25.329Z,26.73
2018-01-27T09:07:54.156Z,21.60
2018-01-27T09:10:23.023Z,19.90
2018-01-27T09:12:52.485Z,18.90
2018-01-27T09:15:21.327Z,18.53
2018-01-27T09:17:50.227Z,18.70
2018-01-27T09:20:19.507Z,15.73
2018-01-27T09:22:48.335Z,29.67
2018-01-27T09:25:17.247Z,26.77
2018-01-27T09:27:46.106Z,28.53
2018-01-27T09:30:14.947Z,28.17
2018-01-27T09:32:43.849Z,35.90
2018-01-27T09:35:12.734Z,17.70
2018-01-27T09:37:41.581Z,16.97
2018-01-27T09:40:11.084Z,17.23
2018-01-27T09:42:40.812Z,18.07
2018-01-27T09:45:10.307Z,18.90
2018-01-27T09:47:39.251Z,19.93
2018-01-27T09:50:08.111Z,17.30
2018-01-27T09:52:37.717Z,17.60
2018-01-27T09:55:06.673Z,19.97
2018-01-27T09:57:35.542Z,18.43
2018-01-27T10:00:04.392Z,18.53
2018-01-27T10:02:33.293Z,15.07
2018-01-27T10:05:02.170Z,18.43
2018-01-27T10:07:31.009Z,21.20
2018-01-27T10:09:59.906Z,19.83
2018-01-27T10:12:28.795Z,26.20
2018-01-27T10:14:57.643Z,19.00
2018-01-27T10:17:26.551Z,17.13
2018-01-27T10:19:55.419Z,19.37
2018-01-27T10:22:24.282Z,22.53
2018-01-27T10:24:53.139Z,18.90
2018-01-27T10:27:22.692Z,36.70
2018-01-27T10:29:51.592Z,16.40
2018-01-27T10:32:20.951Z,17.70
2018-01-27T10:34:49.827Z,17.90
2018-01-27T10:37:18.811Z,16.03
2018-01-27T10:39:47.806Z,13.87
2018-01-27T10:42:16.647Z,16.20
2018-01-27T10:44:45.489Z,17.43
2018-01-27T10:47:14.383Z,15.43
2018-01-27T10:49:43.248Z,15.77
2018-01-27T10:52:12.234Z,19.60
2018-01-27T10:54:41.153Z,16.63
2018-01-27T10:57:09.995Z,17.97
2018-01-27T10:59:38.853Z,17.27
2018-01-27T11:02:07.818Z,17.70
2018-01-27T11:04:37.111Z,19.27
2018-01-27T11:07:05.957Z,21.90
2018-01-27T11:09:34.841Z,19.17
2018-01-27T11:12:03.709Z,19.10
2018-01-27T11:14:33.495Z,20.30
2018-01-27T11:17:02.377Z,19.27
2018-01-27T11:19:31.260Z,16.13
2018-01-27T11:22:00.110Z,17.37
2018-01-27T11:24:29.003Z,17.17
2018-01-27T11:26:57.882Z,20.37
2018-01-27T11:29:26.820Z,19.57
2018-01-27T11:31:55.811Z,16.30
2018-01-27T11:34:24.662Z,21.37
2018-01-27T11:36:53.575Z,20.63
2018-01-27T11:39:22.473Z,16.87
2018-01-27T11:41:51.325Z,17.27
2018-01-27T11:44:20.339Z,19.60
2018-01-27T11:46:49.235Z,18.87
2018-01-27T11:49:18.096Z,15.97
2018-01-27T11:51:47.080Z,19.23
2018-01-27T11:54:15.976Z,15.63
2018-01-27T11:56:45.380Z,18.23
2018-01-27T11:59:15.619Z,17.47
2018-01-27T12:01:48.892Z,15.13
2018-01-27T12:04:19.334Z,16.40
2018-01-27T12:06:48.207Z,19.63
2018-01-27T12:09:18.600Z,19.33
2018-01-27T12:11:47.465Z,18.87
2018-01-27T12:14:16.969Z,17.27
2018-01-27T12:16:45.831Z,16.03
2018-01-27T12:19:14.816Z,16.23
2018-01-27T12:21:43.707Z,17.10
2018-01-27T12:24:13.771Z,18.70
2018-01-27T12:26:42.610Z,17.43
2018-01-27T12:29:11.635Z,17.63
2018-01-27T12:31:40.513Z,19.90
2018-01-27T12:34:09.405Z,23.33
2018-01-27T12:36:38.339Z,21.47
2018-01-27T12:39:08.589Z,19.43
2018-01-27T12:41:37.534Z,18.40
2018-01-27T12:44:06.409Z,18.53
2018-01-27T12:46:35.275Z,21.33
2018-01-27T12:49:04.120Z,17.53
2018-01-27T12:51:32.978Z,20.10
2018-01-27T12:54:01.837Z,26.30
2018-01-27T12:56:30.755Z,23.53
2018-01-27T12:58:59.637Z,20.13
2018-01-27T13:01:28.543Z,24.20
2018-01-27T13:03:57.387Z,20.00
2018-01-27T13:06:26.259Z,20.20
2018-01-27T13:08:55.111Z,25.23
2018-01-27T13:11:23.959Z,20.67
2018-01-27T13:13:52.847Z,24.30
2018-01-27T13:16:21.709Z,23.10
2018-01-27T13:18:51.068Z,24.90
2018-01-27T13:21:19.958Z,30.67
2018-01-27T13:23:49.420Z,20.10
2018-01-27T13:26:19.535Z,19.07
2018-01-27T13:28:48.417Z,20.93
2018-01-27T13:31:17.597Z,22.77
2018-01-27T13:33:46.438Z,22.00
2018-01-27T13:36:15.296Z,23.73
2018-01-27T13:38:44.136Z,27.53
2018-01-27T13:41:13.001Z,26.90
2018-01-27T13:43:41.902Z,25.30
2018-01-27T13:46:10.778Z,26.37
2018-01-27T13:48:39.749Z,27.27
2018-01-27T13:51:08.633Z,26.97
2018-01-27T13:53:37.480Z,27.93
2018-01-27T13:56:06.336Z,25.67
2018-01-27T13:58:35.261Z,27.13
2018-01-27T14:01:04.134Z,27.53
2018-01-27T14:03:32.983Z,25.77
2018-01-27T14:06:01.869Z,21.70
2018-01-27T14:08:31.649Z,23.30
2018-01-27T14:11:00.496Z,24.27
2018-01-27T14:13:29.419Z,24.80
2018-01-27T14:15:58.269Z,22.73
2018-01-27T14:18:27.109Z,24.90
2018-01-27T14:20:55.973Z,24.93
2018-01-27T14:23:24.811Z,21.40
2018-01-27T14:25:53.643Z,21.27
2018-01-27T14:28:22.516Z,18.80
2018-01-27T14:30:51.433Z,19.70
2018-01-27T14:33:21.645Z,18.73
2018-01-27T14:35:50.553Z,18.77
2018-01-27T14:38:19.603Z,16.93
2018-01-27T14:40:48.441Z,18.10
2018-01-27T14:43:17.307Z,16.23
2018-01-27T14:45:46.154Z,15.07
2018-01-27T14:48:14.991Z,17.97
2018-01-27T14:50:43.901Z,17.90
2018-01-27T14:53:13.697Z,19.07
2018-01-27T14:55:42.566Z,18.20
2018-01-27T14:58:12.003Z,17.30
2018-01-27T15:00:42.169Z,22.37
2018-01-27T15:03:11.159Z,19.17
2018-01-27T15:05:40.003Z,20.27
2018-01-27T15:08:08.916Z,21.70
2018-01-27T15:10:37.831Z,19.43
2018-01-27T15:13:06.686Z,21.93
2018-01-27T15:15:36.254Z,21.00
2018-01-27T15:18:05.127Z,23.30
2018-01-27T15:20:35.225Z,17.27
2018-01-27T15:23:04.070Z,20.90
2018-01-27T15:25:32.954Z,22.20
2018-01-27T15:28:02.622Z,25.10
2018-01-27T15:30:31.711Z,21.60
2018-01-27T15:33:00.609Z,26.77
2018-01-27T15:35:29.515Z,24.53
2018-01-27T15:37:58.391Z,22.20
2018-01-27T15:40:27.281Z,29.80
2018-01-27T15:42:56.249Z,23.97
2018-01-27T15:45:25.101Z,23.07
2018-01-27T15:47:53.971Z,26.77
2018-01-27T15:50:22.815Z,24.53
2018-01-27T15:52:51.680Z,29.73
2018-01-27T15:55:20.563Z,24.43
2018-01-27T15:57:50.095Z,26.53
2018-01-27T16:00:19.849Z,27.47
2018-01-27T16:02:48.718Z,21.73
2018-01-27T16:05:17.634Z,25.57
2018-01-27T16:07:46.554Z,26.63
2018-01-27T16:10:15.414Z,18.70
2018-01-27T16:12:44.281Z,23.93
2018-01-27T16:15:13.165Z,22.50
2018-01-27T16:17:42.008Z,21.40
2018-01-27T16:20:10.896Z,23.47
2018-01-27T16:22:39.845Z,22.30
2018-01-27T16:25:08.967Z,23.60
2018-01-27T16:27:37.856Z,18.90
2018-01-27T16:30:06.763Z,23.20
2018-01-27T16:32:35.635Z,22.00
2018-01-27T16:35:04.545Z,20.53
2018-01-27T16:37:33.406Z,19.57
2018-01-27T16:40:02.301Z,19.23
2018-01-27T16:42:31.147Z,20.00
2018-01-27T16:45:00.079Z,21.03
2018-01-27T16:47:29.783Z,19.87
2018-01-27T16:49:58.655Z,18.83
2018-01-27T16:52:28.689Z,18.47
2018-01-27T16:54:57.575Z,16.90
2018-01-27T16:57:26.420Z,20.47
2018-01-27T16:59:55.337Z,19.53
2018-01-27T17:02:24.193Z,16.57
2018-01-27T17:04:53.098Z,17.23
2018-01-27T17:07:22.911Z,22.00
2018-01-27T17:09:51.825Z,15.63
2018-01-27T17:12:22.277Z,21.73
2018-01-27T17:14:51.397Z,17.00
2018-01-27T17:17:20.274Z,17.97
2018-01-27T17:19:49.419Z,21.07
2018-01-27T17:22:18.295Z,20.80
2018-01-27T17:24:47.141Z,17.93
2018-01-27T17:27:15.999Z,19.60
2018-01-27T17:29:44.913Z,17.67
2018-01-27T17:32:14.227Z,18.20
2018-01-27T17:34:43.069Z,22.47
2018-01-27T17:37:11.993Z,16.73
2018-01-27T17:39:40.913Z,19.63
2018-01-27T17:42:09.812Z,27.03
2018-01-27T17:44:38.689Z,18.60
2018-01-27T17:47:07.540Z,21.47
2018-01-27T17:49:36.399Z,23.30
2018-01-27T17:52:05.312Z,14.83
2018-01-27T17:54:34.759Z,19.33
2018-01-27T17:57:03.659Z,20.30
2018-01-27T17:59:34.173Z,15.53
2018-01-27T18:02:03.025Z,13.23
2018-01-27T18:04:32.218Z,14.47
2018-01-27T18:07:01.117Z,12.73
2018-01-27T18:09:29.975Z,12.43
2018-01-27T18:11:58.927Z,12.13
2018-01-27T18:14:27.791Z,13.50
2018-01-27T18:16:56.631Z,13.00
2018-01-27T18:19:25.553Z,14.10
2018-01-27T18:21:54.395Z,17.90
2018-01-27T18:24:23.363Z,9.57
2018-01-27T18:26:52.573Z,15.53
2018-01-27T18:29:21.968Z,10.47
2018-01-27T18:31:50.881Z,14.07
2018-01-27T18:34:19.762Z,10.87
2018-01-27T18:36:48.607Z,14.13
2018-01-27T18:39:17.481Z,13.83
2018-01-27T18:41:46.329Z,9.50
2018-01-27T18:44:15.945Z,14.93
2018-01-27T18:46:44.796Z,14.63
2018-01-27T18:49:13.728Z,12.93
2018-01-27T18:51:42.615Z,15.67
2018-01-27T18:54:11.543Z,14.23
2018-01-27T18:56:40.431Z,24.37
2018-01-27T18:59:09.310Z,29.93
2018-01-27T19:01:39.275Z,15.53
2018-01-27T19:04:08.365Z,13.33
2018-01-27T19:06:38.079Z,17.23
2018-01-27T19:09:06.947Z,12.83
2018-01-27T19:11:35.847Z,14.90
2018-01-27T19:14:04.715Z,15.30
2018-01-27T19:16:34.159Z,10.93
2018-01-27T19:19:03.054Z,12.63
2018-01-27T19:21:31.941Z,12.90
2018-01-27T19:24:00.775Z,13.60
2018-01-27T19:26:29.678Z,11.80
2018-01-27T19:28:58.652Z,17.03
2018-01-27T19:31:28.372Z,13.73
2018-01-27T19:33:57.233Z,11.13
2018-01-27T19:36:26.085Z,13.90
2018-01-27T19:38:56.597Z,13.67
2018-01-27T19:41:26.272Z,14.87
2018-01-27T19:43:55.147Z,11.97
2018-01-27T19:46:24.632Z,14.00
2018-01-27T19:48:53.917Z,16.30
2018-01-27T19:51:23.169Z,13.93
2018-01-27T19:53:54.708Z,16.00
2018-01-27T19:56:24.195Z,14.13
2018-01-27T19:58:53.102Z,10.87
2018-01-27T20:01:24.701Z,12.10
2018-01-27T20:03:54.378Z,14.37
2018-01-27T20:06:23.240Z,15.57
2018-01-27T20:08:52.823Z,13.13
2018-01-27T20:11:22.693Z,11.87
2018-01-27T20:13:51.549Z,14.27
2018-01-27T20:16:20.457Z,11.40
2018-01-27T20:18:49.311Z,11.10
2018-01-27T20:21:19.873Z,13.57
2018-01-27T20:23:49.076Z,14.23
2018-01-27T20:26:18.022Z,13.07
2018-01-27T20:28:46.883Z,12.60
2018-01-27T20:31:15.773Z,12.10
2018-01-27T20:33:44.659Z,13.73
2018-01-27T20:36:13.499Z,11.03
2018-01-27T20:38:42.384Z,9.63
2018-01-27T20:41:11.525Z,11.37
2018-01-27T20:43:40.411Z,12.50
2018-01-27T20:46:09.321Z,14.50
2018-01-27T20:48:38.162Z,16.33
2018-01-27T20:51:07.007Z,15.57
2018-01-27T20:53:35.879Z,13.47
2018-01-27T20:56:05.720Z,12.80
2018-01-27T20:58:34.577Z,14.53
2018-01-27T21:01:03.481Z,13.47
2018-01-27T21:03:32.341Z,12.30
2018-01-27T21:06:01.995Z,16.67
2018-01-27T21:08:30.921Z,14.67
2018-01-27T21:10:59.806Z,16.07
2018-01-27T21:13:28.646Z,14.43
2018-01-27T21:15:57.610Z,16.97
2018-01-27T21:18:26.449Z,13.47
2018-01-27T21:20:55.276Z,17.70
2018-01-27T21:23:24.372Z,12.60
2018-01-27T21:25:53.446Z,15.90
2018-01-27T21:28:22.322Z,16.53
2018-01-27T21:30:51.511Z,18.27
2018-01-27T21:33:21.442Z,19.43
2018-01-27T21:35:50.375Z,21.23
2018-01-27T21:38:19.239Z,15.90
2018-01-27T21:40:48.891Z,18.30
2018-01-27T21:43:18.572Z,20.07
2018-01-27T21:45:47.448Z,21.50
2018-01-27T21:48:16.286Z,18.83
2018-01-27T21:50:45.119Z,21.73
2018-01-27T21:53:13.982Z,20.57
2018-01-27T21:55:42.831Z,19.30
2018-01-27T21:58:11.714Z,20.43
2018-01-27T22:00:40.573Z,21.17
2018-01-27T22:03:09.435Z,21.77
2018-01-27T22:05:39.210Z,20.53
2018-01-27T22:08:09.049Z,20.23
2018-01-27T22:10:37.985Z,22.73
2018-01-27T22:13:06.837Z,21.23
2018-01-27T22:15:36.312Z,23.50
2018-01-27T22:18:05.228Z,20.63
2018-01-27T22:20:34.465Z,20.90
2018-01-27T22:23:03.393Z,19.07
2018-01-27T22:25:32.253Z,23.97
2018-01-27T22:28:01.129Z,22.67
2018-01-27T22:30:30.737Z,16.83
2018-01-27T22:33:00.431Z,23.27
2018-01-27T22:35:29.283Z,23.20
2018-01-27T22:37:58.142Z,23.37
2018-01-27T22:40:27.115Z,21.67
2018-01-27T22:42:55.993Z,26.20
2018-01-27T22:45:24.870Z,23.37
2018-01-27T22:47:54.314Z,23.33
2018-01-27T22:50:23.183Z,23.37
2018-01-27T22:52:52.035Z,21.33
2018-01-27T22:55:20.924Z,21.77
2018-01-27T22:57:49.806Z,21.57
2018-01-27T23:00:18.672Z,20.37
2018-01-27T23:02:47.520Z,23.80
2018-01-27T23:05:16.380Z,21.53
2018-01-27T23:07:45.236Z,19.93
2018-01-27T23:10:14.081Z,19.57
2018-01-27T23:12:42.931Z,24.30
2018-01-27T23:15:11.829Z,21.27
2018-01-27T23:17:40.683Z,17.07
2018-01-27T23:20:09.577Z,22.07
2018-01-27T23:22:38.433Z,16.83
2018-01-27T23:25:07.278Z,19.50
2018-01-27T23:27:36.477Z,18.03
2018-01-27T23:30:06.234Z,20.53
2018-01-27T23:32:35.097Z,18.33
2018-01-27T23:35:03.989Z,18.67
2018-01-27T23:37:32.949Z,20.80
2018-01-27T23:40:02.503Z,16.47
2018-01-27T23:42:31.390Z,19.40
2018-01-27T23:45:00.240Z,16.63
2018-01-27T23:47:29.147Z,20.87
2018-01-27T23:49:57.986Z,18.33
2018-01-27T23:52:26.842Z,19.07
2018-01-27T23:54:56.560Z,19.30
2018-01-27T23:57:25.417Z,16.83
2018-01-27T23:59:54.259Z,18.10
